Artern, Germany

2:08 AM CET on December 21, 2014 (GMT +0100)
ISACHSEN47 | Change Station
CLOSE
Current Station
Personal Weather Station
Location: Sangerhausen, SACHSEN-ANHALT
Elevation: 758 ft
Nearby Weather Stations

Elev 758 ft 51.49 °N, 11.29 °E | Updated 8 minutes ago

Scattered Clouds
Scattered Clouds
35.4 °F
Feels Like 35 °F
N
2.2
Wind Variable Wind from West
Gusts 7.7 mph

Today
High -- | Low -- °F
--% Chance of Precip.
Yesterday
High -- | Low -- °F
Precip. -- in
8:17 AM 4:08 PM
Waning Crescent, 1% visible
Pressure 30.21 in
Visibility 6.2 miles
Clouds Scattered Clouds 3000 ft
Windchill 35 °F
Dew Point 34 °F
Humidity 94%
Rainfall 0.00 in
Snow Depth Not available.
UV 0.0 out of 12
Pollen Not available.
Air Quality Not available.
Flu Activity Not available.
METAR EDDE 210050Z 27014KT 9999 SCT030 02/01 Q1023

More Conditions Fewer Conditions

Pressure 30.21 in
Visibility 6.2 miles
Clouds Scattered Clouds 3000 ft
Windchill 35 °F
Dew Point 34 °F
Humidity 94%
Rainfall 0.00 in
Snow Depth Not available.
UV 0.0 out of 12
Pollen Not available.
Air Quality Not available.
Flu Activity Not available.
METAR EDDE 210050Z 27014KT 9999 SCT030 02/01 Q1023

More Conditions Fewer Conditions

10-Day Weather Forecast

Almanac

Astronomy

Dec. 21, 2014 Rise Set
Actual Time
Civil Twilight
Nautical Twilight
Astronomical Twilight
Moon
Length of Visible Light
Length of Day
Tomorrow will be .
, % of the Moon is Illuminated

Today's Extremes

Country Highs Country Lows

Community

WunderPhotos

Upload Photos

1,779,331 photos uploaded!

WunderBlogs® & News

Nearby

Air Quality

  Air Quality AQ Index Pollutant
Not available.

Snow Depth

Station Depth Elevation

Earthquake Activity

City Distance Mag. Time & Date
Minimum magnitude displayed is 2.5.

Coastal Water Temperatures

Place Temperature

Nearby Weather Stations